Time;durP1;ratioP1;P1;durP2;ratioP2;P2;SDS_P1;SDS_P2;PMS_P1;PMS_P2;Temp;Humidity;BMP_temperature;BMP_pressure;BME280_temperature;BME280_humidity;BME280_pressure;Samples;Min_cycle;Max_cycle;Signal;HPM_P1;HPM_P2
2021/01/05 00:01:14;;;;;;;116.25;41.65;;;2.10;93.40;;;;;;4955417;29;20476;-83
2021/01/05 00:03:40;;;;;;;114.03;40.75;;;2.10;93.30;;;;;;4955373;28;20038;-86
2021/01/05 00:06:06;;;;;;;118.85;41.97;;;2.10;93.50;;;;;;4938497;29;20024;-84
2021/01/05 00:08:32;;;;;;;117.68;42.20;;;2.20;93.50;;;;;;4970617;28;20035;-85
2021/01/05 00:10:57;;;;;;;109.13;40.97;;;2.20;93.20;;;;;;4955136;29;20043;-84
2021/01/05 00:13:23;;;;;;;125.47;43.67;;;2.10;93.20;;;;;;4955251;29;20023;-83
2021/01/05 00:15:49;;;;;;;126.10;44.00;;;2.10;93.30;;;;;;4955095;29;20557;-85
2021/01/05 00:18:15;;;;;;;118.00;41.10;;;2.00;93.30;;;;;;4955294;29;20581;-81
2021/01/05 00:20:40;;;;;;;106.53;40.97;;;2.10;93.40;;;;;;4954871;29;20031;-83
2021/01/05 00:23:06;;;;;;;116.75;41.00;;;2.10;93.30;;;;;;4954859;29;20102;-82
2021/01/05 00:25:32;;;;;;;116.47;43.75;;;2.10;93.40;;;;;;4954543;28;20035;-76
2021/01/05 00:27:58;;;;;;;107.75;39.92;;;2.10;93.30;;;;;;4937418;29;20027;-74
2021/01/05 00:30:26;;;;;;;115.22;39.22;;;2.10;93.30;;;;;;4954413;29;20378;-74
2021/01/05 00:32:54;;;;;;;111.50;42.97;;;2.10;93.20;;;;;;4954632;29;20023;-74
2021/01/05 00:35:30;;;;;;;105.63;40.33;;;2.10;93.40;;;;;;4954524;29;20423;-74
2021/01/05 00:37:56;;;;;;;108.05;38.75;;;2.00;93.30;;;;;;4936974;29;20031;-74
2021/01/05 00:40:23;;;;;;;103.13;39.47;;;2.00;93.40;;;;;;4954582;29;20085;-74
2021/01/05 00:42:49;;;;;;;104.05;40.15;;;2.10;93.40;;;;;;4954503;29;20046;-74
2021/01/05 00:45:44;;;;;;;105.25;39.53;;;2.10;93.20;;;;;;4954402;29;20023;-74
2021/01/05 00:48:10;;;;;;;95.90;38.90;;;2.10;93.20;;;;;;4933887;29;20479;-74
2021/01/05 00:50:35;;;;;;;117.22;43.97;;;2.10;93.30;;;;;;4954092;29;20038;-74
2021/01/05 00:53:02;;;;;;;103.00;39.15;;;2.20;93.30;;;;;;4954215;29;20027;-74
2021/01/05 00:55:27;;;;;;;104.07;39.67;;;2.20;92.90;;;;;;4954007;29;20426;-74
2021/01/05 00:57:53;;;;;;;109.43;41.15;;;2.20;92.60;;;;;;4953885;29;20030;-74
2021/01/05 01:00:23;;;;;;;108.10;38.63;;;2.00;93.10;;;;;;4954083;29;20060;-74
2021/01/05 01:02:50;;;;;;;107.90;39.80;;;2.00;93.30;;;;;;4936642;29;20023;-73
2021/01/05 01:05:17;;;;;;;101.20;38.03;;;2.00;93.50;;;;;;4969124;28;20032;-73
2021/01/05 01:07:43;;;;;;;124.28;41.67;;;2.00;93.40;;;;;;4953752;29;20490;-74
2021/01/05 01:10:09;;;;;;;125.43;42.03;;;1.90;93.50;;;;;;4954174;29;20034;-74
2021/01/05 01:12:35;;;;;;;120.93;44.90;;;1.90;93.90;;;;;;4953791;29;20023;-74
2021/01/05 01:15:02;;;;;;;108.35;39.05;;;2.00;93.90;;;;;;4953814;29;20035;-74
2021/01/05 01:17:28;;;;;;;119.20;43.38;;;2.00;93.60;;;;;;4953268;28;20051;-74
2021/01/05 01:19:54;;;;;;;120.00;42.28;;;1.90;93.70;;;;;;4953626;29;20549;-74
2021/01/05 01:22:21;;;;;;;124.20;42.28;;;1.80;93.90;;;;;;4953938;29;20031;-74
2021/01/05 01:24:48;;;;;;;127.10;42.28;;;1.80;93.90;;;;;;4953775;29;20098;-74
2021/01/05 01:27:13;;;;;;;118.68;40.95;;;1.90;94.20;;;;;;4936543;29;20545;-74
2021/01/05 01:29:39;;;;;;;127.45;41.33;;;1.80;94.00;;;;;;4953519;29;20023;-73
2021/01/05 01:32:05;;;;;;;120.78;40.40;;;1.80;94.30;;;;;;4953864;29;20394;-74
2021/01/05 01:34:30;;;;;;;137.63;44.08;;;1.80;94.20;;;;;;4936433;29;20486;-74
2021/01/05 01:36:57;;;;;;;112.43;39.63;;;1.80;94.30;;;;;;4953211;28;20028;-74
2021/01/05 01:39:24;;;;;;;121.70;41.95;;;1.80;94.30;;;;;;4954244;29;20430;-74
2021/01/05 01:41:49;;;;;;;118.43;40.40;;;1.90;94.40;;;;;;4953061;29;20019;-74
2021/01/05 01:44:22;;;;;;;118.50;42.85;;;2.00;94.30;;;;;;4954601;29;20031;-74
2021/01/05 01:46:49;;;;;;;118.28;42.75;;;2.10;94.10;;;;;;4946647;28;20024;-74
2021/01/05 01:49:15;;;;;;;120.40;40.85;;;2.10;93.90;;;;;;4935237;29;20039;-74
2021/01/05 01:51:42;;;;;;;121.55;41.00;;;2.00;93.70;;;;;;4935042;29;20032;-74
2021/01/05 01:54:23;;;;;;;121.70;42.38;;;1.90;93.90;;;;;;4936980;29;20050;-74
2021/01/05 01:57:42;;;;;;;118.00;42.13;;;1.90;94.30;;;;;;4937085;29;20027;-74
2021/01/05 02:00:18;;;;;;;119.18;40.20;;;2.00;94.40;;;;;;4876544;29;20045;-73
2021/01/05 02:03:05;;;;;;;107.20;38.78;;;2.00;94.20;;;;;;4953292;29;20114;-74
2021/01/05 02:05:43;;;;;;;116.05;40.40;;;2.00;94.20;;;;;;4954088;29;20500;-73
2021/01/05 02:08:32;;;;;;;121.22;42.35;;;2.00;94.00;;;;;;4954251;29;20450;-73
2021/01/05 02:11:17;;;;;;;125.88;41.50;;;1.90;94.10;;;;;;4954193;29;20487;-73
2021/01/05 02:14:02;;;;;;;112.20;42.10;;;2.00;94.30;;;;;;4953976;29;20063;-72
2021/01/05 02:17:10;;;;;;;114.65;40.95;;;2.00;94.20;;;;;;4936992;29;20035;-72
2021/01/05 02:19:44;;;;;;;123.90;41.10;;;2.00;94.10;;;;;;4936618;29;20049;-73
2021/01/05 02:22:42;;;;;;;127.25;42.25;;;2.00;94.20;;;;;;4954020;29;20020;-72
2021/01/05 02:25:26;;;;;;;128.13;40.80;;;2.00;94.30;;;;;;4911701;29;20078;-72
2021/01/05 02:27:58;;;;;;;132.02;43.45;;;1.90;94.30;;;;;;4953783;29;20023;-72
2021/01/05 02:30:32;;;;;;;125.15;41.60;;;2.00;94.30;;;;;;4953904;29;20433;-72
2021/01/05 02:33:29;;;;;;;122.13;43.45;;;2.00;94.30;;;;;;4953964;29;20035;-72
2021/01/05 02:36:21;;;;;;;121.78;41.47;;;2.10;94.50;;;;;;4936691;29;20031;-72
2021/01/05 02:39:16;;;;;;;129.00;41.67;;;2.00;94.20;;;;;;4936583;29;20259;-73
2021/01/05 02:42:03;;;;;;;102.20;37.30;;;2.00;94.40;;;;;;4953705;29;20031;-73
2021/01/05 02:44:48;;;;;;;123.65;41.22;;;2.10;94.30;;;;;;4936758;29;20479;-73
2021/01/05 02:47:38;;;;;;;105.32;40.10;;;2.10;94.10;;;;;;4953976;29;20027;-72
2021/01/05 02:50:18;;;;;;;103.85;37.47;;;2.10;94.10;;;;;;4936835;29;20028;-72
2021/01/05 02:53:21;;;;;;;86.28;31.23;;;2.20;94.20;;;;;;4938289;29;20511;-75
2021/01/05 02:56:10;;;;;;;107.10;38.30;;;2.30;93.90;;;;;;4954845;29;20110;-73
2021/01/05 02:58:59;;;;;;;118.57;39.58;;;2.20;93.70;;;;;;4939862;29;20134;-73
2021/01/05 03:02:02;;;;;;;119.82;40.97;;;2.10;93.70;;;;;;4939988;29;20031;-73
2021/01/05 03:04:27;;;;;;;111.95;41.25;;;2.00;94.00;;;;;;4939984;29;20023;-73
2021/01/05 03:06:57;;;;;;;105.82;38.65;;;2.20;93.90;;;;;;4957114;29;20058;-73
2021/01/05 03:09:32;;;;;;;108.47;37.75;;;2.20;93.50;;;;;;4957173;29;20146;-73
2021/01/05 03:12:11;;;;;;;101.90;41.67;;;2.10;93.40;;;;;;4939681;29;20788;-73
2021/01/05 03:15:17;;;;;;;109.75;39.80;;;2.00;93.80;;;;;;4957100;29;20031;-73
2021/01/05 03:17:56;;;;;;;96.35;37.35;;;2.00;93.90;;;;;;4956483;29;20138;-73
2021/01/05 03:20:29;;;;;;;108.20;37.75;;;2.20;94.00;;;;;;4956752;29;20442;-73
2021/01/05 03:23:08;;;;;;;100.93;36.83;;;2.20;93.90;;;;;;4956877;29;20035;-73
2021/01/05 03:25:40;;;;;;;93.63;37.72;;;2.20;93.70;;;;;;4956977;29;20027;-74
2021/01/05 03:28:08;;;;;;;106.68;38.80;;;2.20;93.70;;;;;;4956887;29;20047;-76
2021/01/05 03:30:41;;;;;;;100.47;36.80;;;2.10;93.50;;;;;;4939607;29;20070;-74
2021/01/05 03:33:07;;;;;;;102.75;40.72;;;2.00;93.60;;;;;;4956871;29;20035;-75
2021/01/05 03:35:33;;;;;;;87.60;35.30;;;2.00;93.80;;;;;;4956510;29;20175;-73
2021/01/05 03:37:59;;;;;;;92.75;36.83;;;2.00;93.60;;;;;;4956663;29;20120;-72
2021/01/05 03:40:25;;;;;;;103.57;37.33;;;1.90;93.60;;;;;;4956827;29;20051;-73
2021/01/05 03:42:51;;;;;;;106.25;39.88;;;2.00;93.70;;;;;;4956584;29;20038;-72
2021/01/05 03:45:20;;;;;;;102.43;38.08;;;2.00;93.80;;;;;;4956417;29;20413;-72
2021/01/05 03:47:46;;;;;;;93.75;37.17;;;2.00;94.00;;;;;;4946051;29;20035;-74
2021/01/05 03:50:12;;;;;;;94.07;36.50;;;2.00;93.90;;;;;;4939460;29;20668;-73
2021/01/05 03:52:38;;;;;;;95.57;38.05;;;2.00;93.90;;;;;;4956504;29;20062;-74
2021/01/05 03:55:04;;;;;;;90.43;35.92;;;2.00;93.90;;;;;;4956239;29;20390;-73
2021/01/05 03:57:30;;;;;;;94.38;37.70;;;2.10;94.00;;;;;;4939062;29;20118;-74
2021/01/05 03:59:55;;;;;;;92.28;38.88;;;2.20;93.90;;;;;;4955372;28;20139;-74
2021/01/05 04:02:21;;;;;;;91.57;36.17;;;2.20;93.60;;;;;;4956080;29;20041;-73
2021/01/05 04:04:47;;;;;;;87.22;34.95;;;2.20;93.30;;;;;;4956144;29;20019;-74
2021/01/05 04:07:12;;;;;;;94.82;38.45;;;2.10;93.10;;;;;;4938907;29;20125;-74
2021/01/05 04:09:38;;;;;;;101.80;41.17;;;2.00;93.30;;;;;;4938696;29;20393;-74
2021/01/05 04:12:04;;;;;;;98.40;38.65;;;2.10;93.70;;;;;;4956014;29;20110;-74
2021/01/05 04:14:29;;;;;;;101.78;37.88;;;2.00;93.70;;;;;;4955754;29;20394;-73
2021/01/05 04:16:55;;;;;;;89.57;40.15;;;2.10;93.80;;;;;;4955835;29;20047;-73
2021/01/05 04:19:21;;;;;;;92.45;41.33;;;2.10;93.60;;;;;;4955913;29;20117;-74
2021/01/05 04:21:51;;;;;;;92.82;37.13;;;2.10;93.80;;;;;;4955648;29;20545;-73
2021/01/05 04:24:17;;;;;;;84.10;35.55;;;2.20;93.40;;;;;;4955944;29;20078;-73
2021/01/05 04:26:43;;;;;;;104.63;42.67;;;2.20;93.40;;;;;;4955722;29;20023;-73
2021/01/05 04:29:09;;;;;;;88.30;37.20;;;2.30;93.50;;;;;;4955737;29;20031;-73
2021/01/05 04:31:42;;;;;;;90.30;34.78;;;2.30;93.30;;;;;;4955707;29;20030;-73
2021/01/05 04:34:09;;;;;;;85.97;34.80;;;2.30;93.30;;;;;;4955972;29;20094;-72
2021/01/05 04:36:34;;;;;;;80.10;33.63;;;2.30;93.00;;;;;;4938376;29;20034;-72
2021/01/05 04:39:00;;;;;;;231.82;103.97;;;2.30;93.10;;;;;;4938203;29;20047;-72
2021/01/05 04:41:27;;;;;;;93.03;39.05;;;2.40;93.20;;;;;;4955321;29;20019;-73
2021/01/05 04:44:03;;;;;;;82.35;34.55;;;2.50;92.60;;;;;;4955221;29;20106;-72
2021/01/05 04:46:53;;;;;;;82.82;33.72;;;2.50;92.60;;;;;;4938138;29;20111;-72
2021/01/05 04:49:27;;;;;;;85.97;36.33;;;2.40;92.70;;;;;;4936182;29;20022;-72
2021/01/05 04:52:09;;;;;;;81.13;33.92;;;2.30;92.80;;;;;;4935879;29;20063;-72
2021/01/05 04:54:43;;;;;;;90.57;34.20;;;2.30;93.00;;;;;;4943336;29;20030;-72
2021/01/05 04:57:19;;;;;;;85.95;34.42;;;2.30;93.20;;;;;;4955112;29;20031;-72
2021/01/05 04:59:57;;;;;;;84.63;36.05;;;2.30;93.10;;;;;;4954768;29;20534;-72
2021/01/05 05:02:29;;;;;;;88.68;34.97;;;2.40;93.10;;;;;;4955367;29;20491;-72
2021/01/05 05:04:58;;;;;;;85.95;34.33;;;2.40;93.10;;;;;;4955147;29;20032;-73
2021/01/05 05:07:52;;;;;;;85.03;35.58;;;2.40;92.90;;;;;;4954910;29;20110;-73
2021/01/05 05:10:33;;;;;;;88.00;34.85;;;2.40;92.80;;;;;;4954726;28;20474;-73
2021/01/05 05:13:35;;;;;;;77.72;33.72;;;2.40;92.90;;;;;;4954116;28;20093;-73
2021/01/05 05:16:19;;;;;;;77.75;32.45;;;2.50;93.00;;;;;;4935058;29;20034;-73
2021/01/05 05:19:03;;;;;;;85.40;32.97;;;2.40;92.60;;;;;;4954356;29;20047;-73
2021/01/05 05:21:31;;;;;;;78.15;32.50;;;2.30;92.70;;;;;;4937471;29;20026;-72
2021/01/05 05:24:12;;;;;;;83.03;33.05;;;2.40;92.80;;;;;;4937368;29;20032;-73
2021/01/05 05:26:47;;;;;;;82.82;33.28;;;2.30;92.80;;;;;;4954722;29;20074;-72
2021/01/05 05:29:37;;;;;;;75.40;33.05;;;2.30;93.10;;;;;;4954512;29;20493;-72
2021/01/05 05:32:09;;;;;;;86.07;34.20;;;2.30;93.20;;;;;;4954551;29;20023;-74
2021/01/05 05:34:56;;;;;;;82.45;33.10;;;2.30;93.30;;;;;;4937404;29;20113;-73
2021/01/05 05:37:42;;;;;;;89.65;32.53;;;2.10;93.50;;;;;;4954481;29;20058;-73
2021/01/05 05:40:15;;;;;;;89.55;34.85;;;2.00;93.60;;;;;;4954648;29;20482;-73
2021/01/05 05:43:09;;;;;;;96.47;36.67;;;1.90;94.00;;;;;;4937284;29;20118;-75
2021/01/05 05:45:37;;;;;;;98.70;35.08;;;1.80;94.30;;;;;;4952052;29;20031;-74
2021/01/05 05:48:20;;;;;;;104.78;37.72;;;2.00;94.50;;;;;;4945572;29;20020;-74
2021/01/05 05:51:11;;;;;;;97.60;34.92;;;1.80;94.40;;;;;;4954251;29;20078;-74
2021/01/05 05:54:12;;;;;;;95.50;34.90;;;1.90;94.70;;;;;;4936956;29;20027;-75
2021/01/05 05:56:53;;;;;;;105.35;35.33;;;2.00;94.60;;;;;;4934935;29;20502;-75
2021/01/05 05:59:27;;;;;;;95.80;36.13;;;1.90;94.70;;;;;;4935185;29;20036;-74
2021/01/05 06:01:52;;;;;;;100.65;35.83;;;1.90;94.60;;;;;;4902046;29;20522;-74
2021/01/05 06:04:21;;;;;;;100.20;35.72;;;2.00;94.70;;;;;;4934965;29;20027;-74
2021/01/05 06:06:47;;;;;;;99.43;34.85;;;1.90;94.60;;;;;;4934872;29;20047;-74
2021/01/05 06:09:13;;;;;;;95.25;36.30;;;2.00;94.80;;;;;;4934642;29;20106;-74
2021/01/05 06:11:38;;;;;;;103.38;35.00;;;2.00;94.90;;;;;;4934537;29;20136;-72
2021/01/05 06:14:05;;;;;;;92.80;35.70;;;2.00;94.60;;;;;;4934789;29;20058;-74
2021/01/05 06:16:34;;;;;;;97.35;34.63;;;2.00;94.80;;;;;;4934728;29;20028;-72
2021/01/05 06:19:00;;;;;;;96.78;35.97;;;2.00;94.80;;;;;;4934566;29;20043;-72
2021/01/05 06:21:26;;;;;;;93.15;33.60;;;2.00;94.60;;;;;;4934161;29;20035;-72
2021/01/05 06:23:52;;;;;;;87.80;33.78;;;2.00;94.70;;;;;;4936539;29;20036;-72
2021/01/05 06:26:19;;;;;;;80.65;31.85;;;2.00;94.60;;;;;;4938477;29;20019;-72
2021/01/05 06:28:46;;;;;;;91.25;32.33;;;2.10;94.70;;;;;;4938417;29;20099;-73
2021/01/05 06:31:12;;;;;;;86.15;33.05;;;2.00;94.40;;;;;;4938635;29;20066;-73
2021/01/05 06:33:38;;;;;;;81.45;32.00;;;2.00;94.50;;;;;;4938358;29;20055;-73
2021/01/05 06:36:04;;;;;;;85.88;32.45;;;1.80;94.40;;;;;;4938469;29;20027;-73
2021/01/05 06:38:30;;;;;;;85.22;31.20;;;1.80;94.40;;;;;;4921091;29;20042;-73
2021/01/05 06:40:55;;;;;;;100.43;36.88;;;1.80;94.60;;;;;;4938229;29;20028;-73
2021/01/05 06:43:21;;;;;;;87.82;34.00;;;1.80;94.70;;;;;;4938091;29;20031;-73
2021/01/05 06:45:47;;;;;;;78.93;31.45;;;1.80;94.70;;;;;;4941367;28;20031;-73
2021/01/05 06:48:12;;;;;;;75.15;31.77;;;2.00;94.80;;;;;;4957301;29;20518;-73
2021/01/05 06:50:38;;;;;;;77.30;31.67;;;2.00;94.60;;;;;;4957245;29;20062;-73
2021/01/05 06:53:04;;;;;;;78.82;33.28;;;2.10;94.70;;;;;;4957237;29;20105;-73
2021/01/05 06:55:30;;;;;;;78.22;31.92;;;2.00;94.40;;;;;;4957279;29;20426;-73
2021/01/05 06:57:56;;;;;;;69.30;31.17;;;2.10;94.30;;;;;;4957111;29;20591;-73
2021/01/05 07:00:25;;;;;;;71.60;30.23;;;2.00;94.10;;;;;;4956936;29;20096;-73
2021/01/05 07:02:51;;;;;;;79.68;29.38;;;2.00;94.10;;;;;;4957178;29;20414;-73
2021/01/05 07:05:17;;;;;;;76.20;32.35;;;1.90;93.80;;;;;;4956844;29;20043;-73
2021/01/05 07:07:44;;;;;;;71.20;31.05;;;1.80;93.90;;;;;;4939661;29;20038;-73
2021/01/05 07:10:12;;;;;;;76.10;31.15;;;1.80;94.10;;;;;;4956812;29;20090;-73
2021/01/05 07:12:38;;;;;;;76.13;31.73;;;1.90;94.40;;;;;;4956643;29;20046;-73
2021/01/05 07:15:05;;;;;;;70.55;28.85;;;1.90;94.20;;;;;;4956647;29;20031;-73
2021/01/05 07:17:31;;;;;;;78.35;32.40;;;1.90;94.40;;;;;;4956324;29;20054;-73
2021/01/05 07:19:56;;;;;;;79.95;31.45;;;1.90;94.10;;;;;;4955816;29;20051;-74
2021/01/05 07:22:22;;;;;;;80.18;31.35;;;1.90;94.10;;;;;;4956913;29;20125;-73
2021/01/05 07:24:48;;;;;;;76.97;28.90;;;1.90;94.00;;;;;;4956872;29;20074;-73
2021/01/05 07:27:13;;;;;;;76.38;29.17;;;1.90;93.90;;;;;;4939451;29;20389;-74
2021/01/05 07:29:39;;;;;;;72.30;30.13;;;1.80;94.00;;;;;;4956580;29;20108;-74
2021/01/05 07:32:05;;;;;;;76.82;29.98;;;1.80;94.20;;;;;;4956814;29;20023;-74
2021/01/05 07:34:32;;;;;;;81.05;31.15;;;1.80;94.20;;;;;;4956510;28;20533;-74
2021/01/05 07:37:01;;;;;;;79.95;31.40;;;1.90;94.20;;;;;;4940596;29;20177;-73
2021/01/05 07:39:29;;;;;;;65.10;28.02;;;1.90;94.10;;;;;;4957464;29;20039;-73
2021/01/05 07:42:12;;;;;;;65.20;27.80;;;1.80;93.80;;;;;;4956755;29;20031;-73
2021/01/05 07:44:38;;;;;;;64.20;28.08;;;1.80;93.80;;;;;;4956178;29;20042;-73
2021/01/05 07:47:04;;;;;;;68.97;28.25;;;1.70;93.80;;;;;;4955943;28;20031;-73
2021/01/05 07:49:30;;;;;;;64.28;27.23;;;1.80;93.90;;;;;;4955932;29;20035;-73
2021/01/05 07:51:56;;;;;;;59.78;26.98;;;1.70;93.70;;;;;;4955908;29;20023;-73
2021/01/05 07:54:21;;;;;;;74.93;29.25;;;1.70;93.90;;;;;;4955875;29;20443;-73
2021/01/05 07:56:47;;;;;;;65.93;29.20;;;1.70;94.10;;;;;;4936670;28;20509;-74
2021/01/05 07:59:12;;;;;;;63.60;27.60;;;1.70;94.10;;;;;;4965614;28;20035;-74
2021/01/05 08:01:38;;;;;;;66.22;28.98;;;1.60;94.00;;;;;;4937334;29;20057;-73
2021/01/05 08:04:04;;;;;;;62.53;26.45;;;1.60;94.00;;;;;;4954767;29;20141;-75
2021/01/05 08:06:30;;;;;;;62.13;26.83;;;1.70;94.10;;;;;;4954733;29;20485;-74
2021/01/05 08:08:55;;;;;;;64.22;26.80;;;1.70;93.80;;;;;;4955165;29;20046;-75
2021/01/05 08:11:21;;;;;;;59.03;25.98;;;1.70;93.80;;;;;;4955067;29;20031;-74
2021/01/05 08:13:47;;;;;;;56.17;26.45;;;1.60;93.70;;;;;;4954659;29;20644;-74
2021/01/05 08:16:13;;;;;;;55.88;25.13;;;1.70;93.80;;;;;;4954697;29;20086;-74
2021/01/05 08:18:39;;;;;;;55.25;25.65;;;1.70;93.60;;;;;;4954682;29;20066;-75
2021/01/05 08:21:06;;;;;;;66.80;27.38;;;1.60;93.70;;;;;;4944932;29;20031;-74
2021/01/05 08:23:32;;;;;;;57.03;25.58;;;1.60;93.50;;;;;;4936048;29;20036;-75
2021/01/05 08:25:58;;;;;;;56.22;25.08;;;1.50;93.70;;;;;;4947790;29;20031;-83
2021/01/05 08:28:23;;;;;;;57.97;24.15;;;1.60;93.70;;;;;;4954776;29;20637;-86
2021/01/05 08:30:49;;;;;;;52.63;24.15;;;1.60;93.60;;;;;;4954860;29;20118;-79
2021/01/05 08:33:16;;;;;;;60.03;24.67;;;1.60;93.40;;;;;;4954734;29;20042;-84
2021/01/05 08:35:46;;;;;;;52.30;24.92;;;1.60;93.50;;;;;;4937425;29;20102;-86
2021/01/05 08:38:12;;;;;;;61.83;25.38;;;1.60;93.50;;;;;;4954455;29;20118;-82
2021/01/05 08:40:37;;;;;;;60.45;25.20;;;1.60;93.70;;;;;;4954698;29;20106;-79
2021/01/05 08:43:08;;;;;;;55.20;25.23;;;1.60;93.80;;;;;;4954592;29;20126;-80
2021/01/05 08:45:34;;;;;;;53.63;23.00;;;1.60;93.80;;;;;;4954047;28;20031;-79
2021/01/05 08:48:00;;;;;;;53.72;24.08;;;1.60;93.60;;;;;;4954169;29;20615;-78
2021/01/05 08:50:29;;;;;;;56.38;25.23;;;1.60;93.40;;;;;;4954436;29;20024;-78
2021/01/05 08:53:00;;;;;;;58.80;26.95;;;1.70;93.30;;;;;;4954164;29;21016;-76
2021/01/05 08:55:27;;;;;;;40.90;19.95;;;1.70;93.50;;;;;;4954136;29;20032;-78
2021/01/05 08:57:53;;;;;;;62.42;26.42;;;1.70;93.30;;;;;;4953675;28;20391;-79
2021/01/05 09:00:20;;;;;;;50.40;22.65;;;1.70;93.40;;;;;;4954087;29;20470;-78
2021/01/05 09:02:45;;;;;;;47.50;22.88;;;1.70;93.10;;;;;;4954457;29;20077;-79
2021/01/05 09:05:12;;;;;;;59.13;26.75;;;1.60;93.20;;;;;;4954031;29;20131;-76
2021/01/05 09:07:38;;;;;;;58.70;25.08;;;1.60;93.40;;;;;;4936361;29;20016;-81
2021/01/05 09:10:13;;;;;;;63.63;28.83;;;1.70;93.20;;;;;;4953938;29;20031;-81
2021/01/05 09:12:39;;;;;;;65.75;29.75;;;1.70;93.30;;;;;;4951825;28;20031;-83
2021/01/05 09:15:05;;;;;;;61.00;27.33;;;1.80;93.10;;;;;;4933244;29;20030;-82
2021/01/05 09:17:31;;;;;;;60.20;27.23;;;1.80;93.00;;;;;;4955629;28;20534;-77
2021/01/05 09:19:56;;;;;;;54.80;26.77;;;1.90;92.70;;;;;;4952280;29;20036;-77
2021/01/05 09:22:25;;;;;;;51.80;23.98;;;2.00;92.60;;;;;;4936458;29;20027;-81
2021/01/05 09:24:51;;;;;;;49.10;22.38;;;2.00;92.60;;;;;;4951691;28;20042;-81
2021/01/05 09:27:18;;;;;;;46.92;22.10;;;2.00;92.50;;;;;;4936250;29;20105;-80
2021/01/05 09:29:43;;;;;;;37.60;18.52;;;1.90;92.20;;;;;;4954499;29;20023;-67
2021/01/05 09:34:49;;;;;;;36.53;18.42;;;1.70;92.20;;;;;;5885347;23;20055;-71
2021/01/05 09:37:15;;;;;;;42.63;20.63;;;1.70;92.10;;;;;;5033940;23;20042;-70
2021/01/05 09:39:41;;;;;;;47.95;21.48;;;1.70;92.00;;;;;;5011516;28;20045;-70
2021/01/05 09:42:06;;;;;;;43.80;21.80;;;1.80;92.20;;;;;;4993605;28;20390;-73
2021/01/05 09:44:32;;;;;;;35.25;17.63;;;2.00;91.90;;;;;;5011607;28;20127;-72
2021/01/05 09:47:02;;;;;;;37.13;18.50;;;1.90;91.50;;;;;;5005243;28;20088;-79
2021/01/05 09:49:27;;;;;;;38.22;18.40;;;1.90;91.70;;;;;;5011624;28;20484;-75
2021/01/05 09:52:00;;;;;;;39.08;19.27;;;1.90;91.60;;;;;;5005178;28;20053;-78
2021/01/05 09:54:28;;;;;;;35.78;17.63;;;1.90;91.60;;;;;;4996709;28;20018;-75
2021/01/05 09:56:55;;;;;;;43.15;19.35;;;2.00;91.60;;;;;;4974369;28;20034;-74
2021/01/05 09:59:23;;;;;;;52.95;24.50;;;2.10;91.90;;;;;;4973872;28;20030;-80
2021/01/05 10:01:49;;;;;;;43.80;20.40;;;2.20;91.70;;;;;;4991822;28;20029;-74
2021/01/05 10:04:15;;;;;;;51.17;22.73;;;2.20;91.30;;;;;;4991749;28;20026;-74
2021/01/05 10:06:41;;;;;;;45.95;22.63;;;2.30;91.50;;;;;;4991894;28;20480;-75
2021/01/05 10:09:08;;;;;;;48.78;23.23;;;2.30;91.40;;;;;;4974377;28;20036;-76
2021/01/05 10:11:39;;;;;;;57.90;25.08;;;2.30;91.70;;;;;;5003990;28;20014;-76
2021/01/05 10:14:05;;;;;;;42.05;21.90;;;2.20;91.80;;;;;;5011287;28;20101;-73
2021/01/05 10:16:31;;;;;;;48.20;21.48;;;2.10;91.50;;;;;;5011447;28;20118;-74
2021/01/05 10:18:58;;;;;;;55.47;23.60;;;1.80;92.20;;;;;;4993798;28;20124;-74
2021/01/05 10:21:37;;;;;;;67.82;27.88;;;1.80;93.00;;;;;;5011221;28;20033;-77
2021/01/05 10:24:05;;;;;;;58.50;24.38;;;1.80;93.20;;;;;;5011087;28;20069;-80
2021/01/05 10:26:30;;;;;;;55.25;24.48;;;1.80;93.60;;;;;;4993621;28;20029;-78
2021/01/05 10:28:57;;;;;;;51.90;25.33;;;1.90;93.10;;;;;;4993439;28;20041;-80
2021/01/05 10:31:23;;;;;;;60.05;28.90;;;2.00;93.50;;;;;;5011166;28;20026;-78
2021/01/05 10:33:49;;;;;;;52.10;24.33;;;2.00;93.20;;;;;;5011003;28;20056;-80
2021/01/05 10:36:20;;;;;;;53.70;24.92;;;2.00;92.80;;;;;;5010492;28;20041;-80
2021/01/05 10:38:48;;;;;;;54.42;25.08;;;2.00;93.10;;;;;;5010843;28;20111;-77
2021/01/05 10:41:17;;;;;;;49.38;22.42;;;2.00;93.10;;;;;;5010807;28;20105;-82
2021/01/05 10:43:44;;;;;;;51.88;22.95;;;2.00;92.80;;;;;;5010737;28;20065;-78
2021/01/05 10:46:11;;;;;;;55.55;24.38;;;1.80;92.70;;;;;;5010704;28;20092;-80
2021/01/05 10:48:37;;;;;;;50.38;23.33;;;1.80;93.30;;;;;;5011055;28;20088;-80
2021/01/05 10:51:04;;;;;;;55.97;25.35;;;1.80;93.40;;;;;;4994290;28;20191;-79
2021/01/05 10:53:31;;;;;;;65.43;30.40;;;1.70;93.50;;;;;;4991478;28;20033;-74
2021/01/05 10:55:57;;;;;;;80.25;35.35;;;1.60;93.50;;;;;;4991293;28;20031;-74
2021/01/05 10:58:23;;;;;;;68.28;31.85;;;1.70;94.10;;;;;;4990157;28;20445;-76
2021/01/05 11:00:50;;;;;;;61.47;25.80;;;1.80;94.20;;;;;;4991150;28;20050;-79
2021/01/05 11:03:15;;;;;;;56.63;25.50;;;1.90;93.70;;;;;;4991377;28;20023;-78
2021/01/05 11:05:41;;;;;;;79.85;40.20;;;1.90;93.40;;;;;;4989772;28;20026;-78
2021/01/05 11:08:08;;;;;;;60.88;29.45;;;2.00;93.10;;;;;;4991182;28;20080;-79
2021/01/05 11:10:34;;;;;;;94.15;40.50;;;1.80;92.90;;;;;;4991623;28;20077;-79
2021/01/05 11:13:00;;;;;;;131.02;56.72;;;1.90;93.10;;;;;;4993503;28;20022;-80
2021/01/05 11:15:26;;;;;;;92.65;40.42;;;1.90;92.70;;;;;;4994738;28;20034;-74
2021/01/05 11:17:51;;;;;;;74.38;32.45;;;2.00;92.80;;;;;;4994464;28;20606;-78
2021/01/05 11:20:18;;;;;;;61.45;31.23;;;2.00;92.80;;;;;;4992989;28;20030;-77
2021/01/05 11:22:44;;;;;;;56.15;26.40;;;2.00;92.70;;;;;;4977259;28;20149;-76
2021/01/05 11:25:13;;;;;;;48.53;24.42;;;2.00;92.60;;;;;;4994547;28;20105;-78
2021/01/05 11:27:39;;;;;;;43.97;22.48;;;2.10;92.50;;;;;;4994241;28;20023;-77
2021/01/05 11:30:06;;;;;;;36.83;18.60;;;2.10;91.80;;;;;;4994387;28;20038;-76
2021/01/05 11:32:31;;;;;;;43.22;23.92;;;2.10;91.50;;;;;;4994494;28;20037;-76
2021/01/05 11:34:57;;;;;;;34.08;19.48;;;2.30;91.40;;;;;;4994205;28;20039;-76
2021/01/05 11:37:23;;;;;;;40.92;20.42;;;2.30;91.10;;;;;;4994177;28;20177;-77
2021/01/05 11:39:52;;;;;;;37.80;20.08;;;2.10;90.70;;;;;;4998710;28;20034;-85
2021/01/05 11:42:23;;;;;;;34.42;18.23;;;2.10;91.30;;;;;;5014377;28;20029;-78
2021/01/05 11:44:49;;;;;;;36.17;18.45;;;2.20;91.60;;;;;;5013723;28;20018;-77
2021/01/05 11:47:16;;;;;;;34.45;17.40;;;2.20;91.00;;;;;;5013853;28;20036;-77
2021/01/05 11:49:43;;;;;;;36.13;18.50;;;2.10;90.80;;;;;;4995833;28;20034;-78
2021/01/05 11:52:09;;;;;;;33.90;18.05;;;2.00;90.90;;;;;;5013584;28;20100;-81
2021/01/05 11:54:34;;;;;;;32.30;18.58;;;2.00;91.20;;;;;;5013414;28;20025;-80
2021/01/05 11:57:01;;;;;;;31.90;16.70;;;2.00;90.90;;;;;;5013600;28;20026;-76
2021/01/05 11:59:28;;;;;;;26.83;16.98;;;1.90;90.90;;;;;;5013314;28;20133;-77
2021/01/05 12:01:54;;;;;;;43.95;22.40;;;1.80;90.60;;;;;;4995502;28;20026;-74
2021/01/05 12:04:20;;;;;;;32.95;18.00;;;1.90;91.10;;;;;;4993442;28;20034;-77
2021/01/05 12:06:52;;;;;;;30.70;16.05;;;2.00;91.10;;;;;;4986863;28;20022;-76
2021/01/05 12:09:20;;;;;;;47.70;23.10;;;2.00;91.00;;;;;;5012603;28;20511;-76
2021/01/05 12:11:46;;;;;;;29.80;16.05;;;2.00;91.00;;;;;;5012872;28;20034;-78
2021/01/05 12:14:13;;;;;;;37.08;18.42;;;2.00;90.80;;;;;;4995640;28;20468;-76
2021/01/05 12:16:44;;;;;;;25.17;15.05;;;2.00;90.60;;;;;;5013014;28;20121;-75
2021/01/05 12:19:16;;;;;;;32.67;17.73;;;2.00;90.50;;;;;;4995430;28;20396;-79
2021/01/05 12:21:43;;;;;;;51.10;25.80;;;2.00;90.60;;;;;;4994983;28;20373;-76
2021/01/05 12:24:14;;;;;;;35.10;17.48;;;2.00;90.80;;;;;;5012908;28;20056;-75
2021/01/05 12:26:40;;;;;;;;;;;2.00;90.80;;;;;;5013327;28;20032;-75
2021/01/05 12:29:33;;;;;;;29.80;15.55;;;1.90;90.50;;;;;;5012894;28;19905;-76
2021/01/05 12:32:04;;;;;;;43.25;21.33;;;1.80;90.80;;;;;;5008889;28;20046;-74
2021/01/05 12:34:34;;;;;;;31.33;17.03;;;1.80;91.60;;;;;;5012981;28;20022;-76
2021/01/05 12:37:06;;;;;;;29.38;15.85;;;1.80;91.60;;;;;;5012760;28;20049;-75
2021/01/05 12:39:33;;;;;;;27.40;14.88;;;1.80;91.20;;;;;;5012409;28;20050;-75
2021/01/05 12:42:20;;;;;;;34.17;17.95;;;1.60;91.80;;;;;;5012307;28;20056;-74
2021/01/05 12:44:47;;;;;;;39.08;19.05;;;1.60;92.10;;;;;;5002246;28;20026;-74
2021/01/05 12:47:13;;;;;;;43.35;22.10;;;1.60;92.50;;;;;;5012597;28;20036;-75
2021/01/05 12:49:39;;;;;;;40.53;20.40;;;1.60;92.80;;;;;;5012398;28;20022;-74
2021/01/05 12:52:09;;;;;;;36.10;17.70;;;1.80;92.80;;;;;;5012314;28;20034;-80